sensor_id;sensor_type;location;lat;lon;timestamp;pressure;altitude;pressure_sealevel;temperature;humidity
16431;BME280;8325;49.284;7.238;2023-06-10T04:01:17;98395.53;;;17.51;71.81
16431;BME280;8325;49.284;7.238;2023-06-10T04:05:32;98392.75;;;17.45;71.73
16431;BME280;8325;49.284;7.238;2023-06-10T04:09:44;98397.97;;;17.52;71.73
16431;BME280;8325;49.284;7.238;2023-06-10T04:13:56;98404.84;;;17.53;71.84
16431;BME280;8325;49.284;7.238;2023-06-10T04:18:08;98401.09;;;17.61;71.49
16431;BME280;8325;49.284;7.238;2023-06-10T04:22:21;98411.75;;;17.54;71.89
16431;BME280;8325;49.284;7.238;2023-06-10T04:26:35;98407.22;;;17.61;71.49
16431;BME280;8325;49.284;7.238;2023-06-10T04:30:48;98408.38;;;17.65;71.13
16431;BME280;8325;49.284;7.238;2023-06-10T04:35:00;98415.19;;;17.55;72.11
16431;BME280;8325;49.284;7.238;2023-06-10T04:39:12;98417.31;;;17.64;71.41
16431;BME280;8325;49.284;7.238;2023-06-10T04:43:24;98420.09;;;17.69;70.66
16431;BME280;8325;49.284;7.238;2023-06-10T04:47:36;98427.13;;;17.76;71.24
16431;BME280;8325;49.284;7.238;2023-06-10T04:51:49;98419.44;;;17.74;71.58
16431;BME280;8325;49.284;7.238;2023-06-10T04:56:01;98426.31;;;17.75;71.32
16431;BME280;8325;49.284;7.238;2023-06-10T05:00:13;98414.00;;;17.87;71.61
16431;BME280;8325;49.284;7.238;2023-06-10T05:04:25;98417.72;;;17.98;70.90
16431;BME280;8325;49.284;7.238;2023-06-10T05:08:37;98411.03;;;18.37;69.50
16431;BME280;8325;49.284;7.238;2023-06-10T05:12:48;98416.91;;;20.82;59.99
16431;BME280;8325;49.284;7.238;2023-06-10T05:21:12;98416.63;;;25.18;45.34
16431;BME280;8325;49.284;7.238;2023-06-10T05:25:25;98411.75;;;26.93;41.47
16431;BME280;8325;49.284;7.238;2023-06-10T05:29:38;98418.13;;;26.73;40.92
16431;BME280;8325;49.284;7.238;2023-06-10T05:33:50;98421.69;;;26.92;40.38
16431;BME280;8325;49.284;7.238;2023-06-10T05:38:02;98406.63;;;28.72;36.88
16431;BME280;8325;49.284;7.238;2023-06-10T05:42:14;98413.78;;;28.49;37.24
16431;BME280;8325;49.284;7.238;2023-06-10T05:46:26;98415.56;;;29.69;35.30
16431;BME280;8325;49.284;7.238;2023-06-10T05:50:38;98422.03;;;29.40;34.89
16431;BME280;8325;49.284;7.238;2023-06-10T05:54:51;98431.31;;;29.98;34.83
16431;BME280;8325;49.284;7.238;2023-06-10T05:59:03;98429.28;;;29.67;34.69
16431;BME280;8325;49.284;7.238;2023-06-10T06:03:14;98434.63;;;30.17;33.88
16431;BME280;8325;49.284;7.238;2023-06-10T06:07:26;98429.66;;;30.11;33.95
16431;BME280;8325;49.284;7.238;2023-06-10T06:11:39;98435.38;;;30.54;33.17
16431;BME280;8325;49.284;7.238;2023-06-10T06:15:50;98429.16;;;30.22;33.63
16431;BME280;8325;49.284;7.238;2023-06-10T06:20:03;98422.50;;;30.42;33.79
16431;BME280;8325;49.284;7.238;2023-06-10T06:24:15;98427.22;;;30.37;33.34
16431;BME280;8325;49.284;7.238;2023-06-10T06:28:27;98423.00;;;29.58;34.76
16431;BME280;8325;49.284;7.238;2023-06-10T06:32:40;98425.63;;;29.08;35.36
16431;BME280;8325;49.284;7.238;2023-06-10T06:36:52;98436.19;;;28.39;36.87
16431;BME280;8325;49.284;7.238;2023-06-10T06:41:05;98437.53;;;26.89;39.89
16431;BME280;8325;49.284;7.238;2023-06-10T06:45:18;98439.41;;;26.59;41.09
16431;BME280;8325;49.284;7.238;2023-06-10T06:49:29;98444.38;;;26.36;41.75
16431;BME280;8325;49.284;7.238;2023-06-10T06:53:41;98443.28;;;26.37;41.99
16431;BME280;8325;49.284;7.238;2023-06-10T06:57:56;98447.38;;;25.85;42.69
16431;BME280;8325;49.284;7.238;2023-06-10T07:02:07;98444.88;;;25.49;43.69
16431;BME280;8325;49.284;7.238;2023-06-10T07:06:19;98452.47;;;25.77;43.41
16431;BME280;8325;49.284;7.238;2023-06-10T07:10:31;98447.66;;;25.14;45.19
16431;BME280;8325;49.284;7.238;2023-06-10T07:14:42;98445.31;;;25.67;43.98
16431;BME280;8325;49.284;7.238;2023-06-10T07:18:54;98456.19;;;25.11;45.01
16431;BME280;8325;49.284;7.238;2023-06-10T07:23:06;98456.59;;;25.54;44.87
16431;BME280;8325;49.284;7.238;2023-06-10T07:27:18;98454.91;;;25.73;43.55
16431;BME280;8325;49.284;7.238;2023-06-10T07:31:29;98448.44;;;25.89;43.59
16431;BME280;8325;49.284;7.238;2023-06-10T07:35:41;98456.41;;;26.05;43.64
16431;BME280;8325;49.284;7.238;2023-06-10T07:39:55;98450.41;;;26.18;43.65
16431;BME280;8325;49.284;7.238;2023-06-10T07:44:07;98453.41;;;25.52;44.66
16431;BME280;8325;49.284;7.238;2023-06-10T07:48:19;98446.41;;;25.61;45.12
16431;BME280;8325;49.284;7.238;2023-06-10T07:52:30;98446.88;;;25.83;44.27
16431;BME280;8325;49.284;7.238;2023-06-10T07:56:42;98448.63;;;26.43;44.21
16431;BME280;8325;49.284;7.238;2023-06-10T08:00:54;98454.22;;;26.07;44.44
16431;BME280;8325;49.284;7.238;2023-06-10T08:05:06;98453.25;;;25.92;44.88
16431;BME280;8325;49.284;7.238;2023-06-10T08:09:18;98444.72;;;25.85;45.29
16431;BME280;8325;49.284;7.238;2023-06-10T08:13:29;98460.38;;;25.53;45.60
16431;BME280;8325;49.284;7.238;2023-06-10T08:17:41;98453.28;;;25.82;46.25
16431;BME280;8325;49.284;7.238;2023-06-10T08:21:53;98447.16;;;25.82;44.74
16431;BME280;8325;49.284;7.238;2023-06-10T08:26:04;98444.56;;;26.11;44.81
16431;BME280;8325;49.284;7.238;2023-06-10T08:30:16;98444.66;;;25.96;45.70
16431;BME280;8325;49.284;7.238;2023-06-10T08:34:28;98448.72;;;25.83;45.18
16431;BME280;8325;49.284;7.238;2023-06-10T08:38:39;98432.47;;;26.18;45.49
16431;BME280;8325;49.284;7.238;2023-06-10T08:43:03;98439.91;;;25.87;46.46
16431;BME280;8325;49.284;7.238;2023-06-10T08:47:17;98446.41;;;25.66;46.93
16431;BME280;8325;49.284;7.238;2023-06-10T08:51:31;98441.00;;;25.81;46.02
16431;BME280;8325;49.284;7.238;2023-06-10T08:55:46;98435.88;;;25.85;45.75
16431;BME280;8325;49.284;7.238;2023-06-10T08:59:59;98433.09;;;25.45;46.98
16431;BME280;8325;49.284;7.238;2023-06-10T09:04:11;98432.41;;;25.79;44.27
16431;BME280;8325;49.284;7.238;2023-06-10T09:08:23;98426.31;;;25.68;43.95
16431;BME280;8325;49.284;7.238;2023-06-10T09:12:35;98428.69;;;25.75;43.98
16431;BME280;8325;49.284;7.238;2023-06-10T09:16:47;98424.66;;;25.83;43.89
16431;BME280;8325;49.284;7.238;2023-06-10T09:20:59;98429.66;;;26.00;44.37
16431;BME280;8325;49.284;7.238;2023-06-10T09:25:12;98426.22;;;26.28;42.72
16431;BME280;8325;49.284;7.238;2023-06-10T09:29:24;98421.66;;;26.34;43.88
16431;BME280;8325;49.284;7.238;2023-06-10T09:33:39;98420.34;;;26.26;42.96
16431;BME280;8325;49.284;7.238;2023-06-10T09:37:56;98420.50;;;26.45;42.17
16431;BME280;8325;49.284;7.238;2023-06-10T09:42:26;98411.03;;;26.58;40.62
16431;BME280;8325;49.284;7.238;2023-06-10T09:46:37;98409.81;;;26.74;40.70
16431;BME280;8325;49.284;7.238;2023-06-10T09:50:49;98416.44;;;26.48;40.32
16431;BME280;8325;49.284;7.238;2023-06-10T09:55:02;98409.91;;;26.64;41.14
16431;BME280;8325;49.284;7.238;2023-06-10T09:59:13;98410.41;;;26.66;40.72
16431;BME280;8325;49.284;7.238;2023-06-10T10:03:25;98407.72;;;26.66;40.08
16431;BME280;8325;49.284;7.238;2023-06-10T10:07:36;98405.25;;;26.99;38.99
16431;BME280;8325;49.284;7.238;2023-06-10T10:11:48;98409.38;;;27.39;40.20
16431;BME280;8325;49.284;7.238;2023-06-10T10:16:08;98394.34;;;27.62;39.66
16431;BME280;8325;49.284;7.238;2023-06-10T10:20:26;98401.72;;;27.70;39.88
16431;BME280;8325;49.284;7.238;2023-06-10T10:24:44;98402.00;;;27.31;38.40
16431;BME280;8325;49.284;7.238;2023-06-10T10:29:14;98399.19;;;27.17;38.75
16431;BME280;8325;49.284;7.238;2023-06-10T10:33:32;98392.75;;;27.18;38.31
16431;BME280;8325;49.284;7.238;2023-06-10T10:37:45;98393.69;;;26.79;38.75
16431;BME280;8325;49.284;7.238;2023-06-10T10:41:58;98392.22;;;27.40;38.89
16431;BME280;8325;49.284;7.238;2023-06-10T10:46:15;98399.06;;;27.89;38.95
16431;BME280;8325;49.284;7.238;2023-06-10T10:50:28;98396.75;;;28.20;39.61
16431;BME280;8325;49.284;7.238;2023-06-10T10:54:46;98388.50;;;28.50;37.88
16431;BME280;8325;49.284;7.238;2023-06-10T10:59:06;98379.06;;;28.66;36.34
16431;BME280;8325;49.284;7.238;2023-06-10T11:03:19;98380.41;;;28.17;35.69
16431;BME280;8325;49.284;7.238;2023-06-10T11:07:32;98374.81;;;28.13;35.92
16431;BME280;8325;49.284;7.238;2023-06-10T11:11:49;98368.47;;;28.23;34.92
16431;BME280;8325;49.284;7.238;2023-06-10T11:16:03;98385.41;;;28.23;35.63
16431;BME280;8325;49.284;7.238;2023-06-10T11:20:56;98375.00;;;28.68;36.59
16431;BME280;8325;49.284;7.238;2023-06-10T11:25:13;98372.09;;;28.51;34.77
16431;BME280;8325;49.284;7.238;2023-06-10T11:29:26;98379.06;;;28.66;35.98
16431;BME280;8325;49.284;7.238;2023-06-10T11:33:38;98376.97;;;28.63;34.92
16431;BME280;8325;49.284;7.238;2023-06-10T11:37:50;98374.19;;;28.54;36.76
16431;BME280;8325;49.284;7.238;2023-06-10T11:42:02;98364.84;;;28.93;36.08
16431;BME280;8325;49.284;7.238;2023-06-10T11:46:14;98369.13;;;28.94;33.77
16431;BME280;8325;49.284;7.238;2023-06-10T11:50:32;98370.63;;;28.86;34.38
16431;BME280;8325;49.284;7.238;2023-06-10T11:54:53;98368.44;;;29.30;35.19
16431;BME280;8325;49.284;7.238;2023-06-10T11:59:06;98363.84;;;29.44;32.98
16431;BME280;8325;49.284;7.238;2023-06-10T12:03:21;98363.63;;;29.54;32.97
16431;BME280;8325;49.284;7.238;2023-06-10T12:07:34;98369.09;;;29.49;31.88
16431;BME280;8325;49.284;7.238;2023-06-10T12:11:49;98357.31;;;29.09;31.72
16431;BME280;8325;49.284;7.238;2023-06-10T12:16:10;98358.28;;;29.41;33.10
16431;BME280;8325;49.284;7.238;2023-06-10T12:20:27;98349.97;;;29.65;32.77
16431;BME280;8325;49.284;7.238;2023-06-10T12:25:00;98348.59;;;29.90;33.24
16431;BME280;8325;49.284;7.238;2023-06-10T12:29:20;98340.88;;;29.74;31.71
16431;BME280;8325;49.284;7.238;2023-06-10T12:33:34;98341.50;;;29.71;32.28
16431;BME280;8325;49.284;7.238;2023-06-10T12:38:03;98344.25;;;30.02;32.52
16431;BME280;8325;49.284;7.238;2023-06-10T12:42:21;98363.41;;;29.65;32.17
16431;BME280;8325;49.284;7.238;2023-06-10T12:46:37;98363.13;;;29.52;32.23
16431;BME280;8325;49.284;7.238;2023-06-10T12:50:54;98353.69;;;28.72;33.18
16431;BME280;8325;49.284;7.238;2023-06-10T12:55:06;98353.72;;;28.39;34.47
16431;BME280;8325;49.284;7.238;2023-06-10T12:59:18;98359.69;;;28.36;34.75
16431;BME280;8325;49.284;7.238;2023-06-10T13:03:30;98340.94;;;28.50;34.88
16431;BME280;8325;49.284;7.238;2023-06-10T13:07:43;98343.75;;;28.73;33.30
16431;BME280;8325;49.284;7.238;2023-06-10T13:11:55;98342.56;;;29.06;33.92
16431;BME280;8325;49.284;7.238;2023-06-10T13:16:07;98343.94;;;28.49;34.10
16431;BME280;8325;49.284;7.238;2023-06-10T13:20:19;98333.97;;;28.49;34.53
16431;BME280;8325;49.284;7.238;2023-06-10T13:24:32;98340.81;;;28.41;35.64
16431;BME280;8325;49.284;7.238;2023-06-10T13:28:44;98333.66;;;28.51;36.96
16431;BME280;8325;49.284;7.238;2023-06-10T13:32:55;98321.84;;;28.93;36.67
16431;BME280;8325;49.284;7.238;2023-06-10T13:37:07;98314.84;;;29.33;33.72
16431;BME280;8325;49.284;7.238;2023-06-10T13:41:19;98311.69;;;29.18;34.19
16431;BME280;8325;49.284;7.238;2023-06-10T13:45:30;98314.47;;;29.26;33.12
16431;BME280;8325;49.284;7.238;2023-06-10T13:49:42;98317.25;;;29.35;33.93
16431;BME280;8325;49.284;7.238;2023-06-10T13:53:54;98324.38;;;29.53;32.46
16431;BME280;8325;49.284;7.238;2023-06-10T13:58:05;98313.88;;;29.66;33.51
16431;BME280;8325;49.284;7.238;2023-06-10T14:02:17;98305.94;;;29.83;32.81
16431;BME280;8325;49.284;7.238;2023-06-10T14:06:29;98304.94;;;29.56;32.43
16431;BME280;8325;49.284;7.238;2023-06-10T14:10:41;98330.81;;;29.66;32.93
16431;BME280;8325;49.284;7.238;2023-06-10T14:14:53;98313.00;;;29.56;32.93
16431;BME280;8325;49.284;7.238;2023-06-10T14:19:05;98298.03;;;29.64;33.16
16431;BME280;8325;49.284;7.238;2023-06-10T14:23:16;98301.22;;;29.52;32.51
16431;BME280;8325;49.284;7.238;2023-06-10T14:27:28;98299.03;;;29.18;33.36
16431;BME280;8325;49.284;7.238;2023-06-10T14:31:40;98303.16;;;29.02;32.99
16431;BME280;8325;49.284;7.238;2023-06-10T14:35:52;98292.69;;;29.50;32.89
16431;BME280;8325;49.284;7.238;2023-06-10T14:40:05;98287.31;;;29.50;33.26
16431;BME280;8325;49.284;7.238;2023-06-10T14:44:16;98277.78;;;29.67;33.19
16431;BME280;8325;49.284;7.238;2023-06-10T14:48:28;98285.69;;;29.63;32.77
16431;BME280;8325;49.284;7.238;2023-06-10T14:52:40;98284.03;;;29.76;32.06
16431;BME280;8325;49.284;7.238;2023-06-10T14:56:51;98268.22;;;29.74;31.19
16431;BME280;8325;49.284;7.238;2023-06-10T15:01:03;98281.00;;;29.69;31.52
16431;BME280;8325;49.284;7.238;2023-06-10T15:05:15;98270.69;;;29.71;31.68
16431;BME280;8325;49.284;7.238;2023-06-10T15:09:28;98274.00;;;29.68;31.44
16431;BME280;8325;49.284;7.238;2023-06-10T15:13:40;98260.91;;;29.97;31.51
16431;BME280;8325;49.284;7.238;2023-06-10T15:17:52;98252.28;;;29.87;31.30
16431;BME280;8325;49.284;7.238;2023-06-10T15:22:05;98256.94;;;29.72;31.26
16431;BME280;8325;49.284;7.238;2023-06-10T15:26:16;98251.56;;;29.72;31.49
16431;BME280;8325;49.284;7.238;2023-06-10T15:30:28;98246.91;;;29.87;30.98
16431;BME280;8325;49.284;7.238;2023-06-10T15:34:40;98238.25;;;29.98;31.42
16431;BME280;8325;49.284;7.238;2023-06-10T15:38:51;98244.22;;;29.64;32.07
16431;BME280;8325;49.284;7.238;2023-06-10T15:43:07;98230.97;;;29.31;32.01
16431;BME280;8325;49.284;7.238;2023-06-10T15:47:19;98243.44;;;29.64;32.40
16431;BME280;8325;49.284;7.238;2023-06-10T15:51:31;98233.75;;;29.85;31.57
16431;BME280;8325;49.284;7.238;2023-06-10T15:55:43;98239.25;;;29.57;32.04
16431;BME280;8325;49.284;7.238;2023-06-10T15:59:54;98223.47;;;29.06;33.12
16431;BME280;8325;49.284;7.238;2023-06-10T16:04:06;98240.94;;;29.31;33.16
16431;BME280;8325;49.284;7.238;2023-06-10T16:08:18;98238.47;;;29.21;32.31
16431;BME280;8325;49.284;7.238;2023-06-10T16:12:29;98251.41;;;29.32;32.25
16431;BME280;8325;49.284;7.238;2023-06-10T16:16:41;98240.56;;;29.24;32.81
16431;BME280;8325;49.284;7.238;2023-06-10T16:20:53;98234.28;;;29.51;32.83
16431;BME280;8325;49.284;7.238;2023-06-10T16:25:06;98229.81;;;29.46;33.13
16431;BME280;8325;49.284;7.238;2023-06-10T16:29:18;98235.44;;;29.36;33.29
16431;BME280;8325;49.284;7.238;2023-06-10T16:33:29;98234.75;;;29.30;32.51
16431;BME280;8325;49.284;7.238;2023-06-10T16:37:41;98234.44;;;28.82;33.08
16431;BME280;8325;49.284;7.238;2023-06-10T16:41:52;98236.81;;;28.97;33.38
16431;BME280;8325;49.284;7.238;2023-06-10T16:46:04;98232.47;;;29.01;32.88
16431;BME280;8325;49.284;7.238;2023-06-10T16:50:16;98239.44;;;28.75;33.23
16431;BME280;8325;49.284;7.238;2023-06-10T16:54:27;98246.00;;;28.82;33.25
16431;BME280;8325;49.284;7.238;2023-06-10T16:58:39;98242.53;;;28.68;33.03
16431;BME280;8325;49.284;7.238;2023-06-10T17:02:51;98240.06;;;28.58;33.03
16431;BME280;8325;49.284;7.238;2023-06-10T17:07:02;98243.81;;;28.71;34.00
16431;BME280;8325;49.284;7.238;2023-06-10T17:11:14;98253.47;;;28.72;33.39
16431;BME280;8325;49.284;7.238;2023-06-10T17:15:26;98255.34;;;28.85;33.36
16431;BME280;8325;49.284;7.238;2023-06-10T17:19:37;98255.75;;;28.78;33.94
16431;BME280;8325;49.284;7.238;2023-06-10T17:23:49;98260.63;;;28.62;34.00
16431;BME280;8325;49.284;7.238;2023-06-10T17:28:01;98259.94;;;28.71;34.08
16431;BME280;8325;49.284;7.238;2023-06-10T17:32:12;98258.63;;;28.82;33.93
16431;BME280;8325;49.284;7.238;2023-06-10T17:36:24;98271.47;;;28.85;33.93
16431;BME280;8325;49.284;7.238;2023-06-10T17:40:35;98266.31;;;28.75;34.05
16431;BME280;8325;49.284;7.238;2023-06-10T17:44:47;98263.03;;;28.50;34.09
16431;BME280;8325;49.284;7.238;2023-06-10T17:48:59;98274.47;;;28.42;34.12
16431;BME280;8325;49.284;7.238;2023-06-10T17:53:10;98274.09;;;28.49;34.40
16431;BME280;8325;49.284;7.238;2023-06-10T17:57:22;98280.13;;;28.40;34.92
16431;BME280;8325;49.284;7.238;2023-06-10T18:01:34;98285.88;;;28.34;34.06
16431;BME280;8325;49.284;7.238;2023-06-10T18:05:45;98277.50;;;28.21;34.28
16431;BME280;8325;49.284;7.238;2023-06-10T18:09:57;98280.97;;;28.08;34.31
16431;BME280;8325;49.284;7.238;2023-06-10T18:14:09;98279.47;;;27.83;34.68
16431;BME280;8325;49.284;7.238;2023-06-10T18:18:21;98293.34;;;27.71;35.01
16431;BME280;8325;49.284;7.238;2023-06-10T18:22:32;98285.34;;;27.66;35.14
16431;BME280;8325;49.284;7.238;2023-06-10T18:26:44;98292.47;;;27.57;35.31
16431;BME280;8325;49.284;7.238;2023-06-10T18:30:56;98291.53;;;27.48;35.40
16431;BME280;8325;49.284;7.238;2023-06-10T18:35:08;98282.03;;;27.37;35.80
16431;BME280;8325;49.284;7.238;2023-06-10T18:39:21;98285.50;;;27.18;36.13
16431;BME280;8325;49.284;7.238;2023-06-10T18:43:33;98286.09;;;27.15;36.40
16431;BME280;8325;49.284;7.238;2023-06-10T18:47:44;98295.03;;;27.05;36.71
16431;BME280;8325;49.284;7.238;2023-06-10T18:52:09;98303.25;;;26.90;37.62
16431;BME280;8325;49.284;7.238;2023-06-10T18:56:20;98305.91;;;26.71;39.48
16431;BME280;8325;49.284;7.238;2023-06-10T19:00:32;98314.38;;;26.54;40.08
16431;BME280;8325;49.284;7.238;2023-06-10T19:04:43;98319.00;;;26.44;40.54
16431;BME280;8325;49.284;7.238;2023-06-10T19:08:55;98323.41;;;26.00;42.08
16431;BME280;8325;49.284;7.238;2023-06-10T19:13:07;98335.63;;;25.72;42.87
16431;BME280;8325;49.284;7.238;2023-06-10T19:17:19;98346.41;;;25.62;45.17
16431;BME280;8325;49.284;7.238;2023-06-10T19:21:30;98352.94;;;25.40;46.36
16431;BME280;8325;49.284;7.238;2023-06-10T19:25:42;98351.69;;;25.17;46.45
16431;BME280;8325;49.284;7.238;2023-06-10T19:29:55;98358.41;;;25.04;48.56
16431;BME280;8325;49.284;7.238;2023-06-10T19:34:08;98358.97;;;24.91;49.01
16431;BME280;8325;49.284;7.238;2023-06-10T19:38:20;98356.91;;;24.68;49.43
16431;BME280;8325;49.284;7.238;2023-06-10T19:42:31;98362.81;;;24.49;51.66
16431;BME280;8325;49.284;7.238;2023-06-10T19:46:45;98361.72;;;24.30;51.49
16431;BME280;8325;49.284;7.238;2023-06-10T19:50:57;98365.44;;;24.03;53.40
16431;BME280;8325;49.284;7.238;2023-06-10T19:55:09;98368.09;;;23.88;54.21
16431;BME280;8325;49.284;7.238;2023-06-10T19:59:21;98369.16;;;23.72;55.08
16431;BME280;8325;49.284;7.238;2023-06-10T20:03:33;98372.81;;;23.60;56.21
16431;BME280;8325;49.284;7.238;2023-06-10T20:07:44;98380.19;;;23.28;58.08
16431;BME280;8325;49.284;7.238;2023-06-10T20:11:56;98381.75;;;23.18;58.71
16431;BME280;8325;49.284;7.238;2023-06-10T20:16:09;98380.09;;;23.07;59.79
16431;BME280;8325;49.284;7.238;2023-06-10T20:20:21;98372.97;;;22.81;60.45
16431;BME280;8325;49.284;7.238;2023-06-10T20:24:33;98380.91;;;22.70;60.92
16431;BME280;8325;49.284;7.238;2023-06-10T20:28:45;98378.44;;;22.59;61.06
16431;BME280;8325;49.284;7.238;2023-06-10T20:32:58;98390.06;;;22.47;62.21
16431;BME280;8325;49.284;7.238;2023-06-10T20:37:10;98398.78;;;22.38;62.98
16431;BME280;8325;49.284;7.238;2023-06-10T20:41:21;98397.47;;;22.13;63.55
16431;BME280;8325;49.284;7.238;2023-06-10T20:45:33;98396.44;;;22.14;64.03
16431;BME280;8325;49.284;7.238;2023-06-10T20:49:44;98410.97;;;22.06;64.34
16431;BME280;8325;49.284;7.238;2023-06-10T20:53:56;98417.56;;;21.99;64.75
16431;BME280;8325;49.284;7.238;2023-06-10T20:58:09;98419.56;;;21.87;65.63
16431;BME280;8325;49.284;7.238;2023-06-10T21:02:20;98421.94;;;21.83;65.49
16431;BME280;8325;49.284;7.238;2023-06-10T21:06:32;98423.16;;;21.75;65.77
16431;BME280;8325;49.284;7.238;2023-06-10T21:10:44;98426.75;;;21.64;66.19
16431;BME280;8325;49.284;7.238;2023-06-10T21:14:56;98436.41;;;21.48;67.05
16431;BME280;8325;49.284;7.238;2023-06-10T21:19:08;98434.88;;;21.52;66.33
16431;BME280;8325;49.284;7.238;2023-06-10T21:23:20;98432.38;;;21.46;64.48
16431;BME280;8325;49.284;7.238;2023-06-10T21:27:31;98443.19;;;21.61;61.52
